sensor_id;sensor_type;location;lat;lon;timestamp;temperature;humidity
18177;DHT22;9213;50.858;3.964;2022-09-09T00:00:19;19.00;60.80
18177;DHT22;9213;50.858;3.964;2022-09-09T00:02:51;19.00;60.80
18177;DHT22;9213;50.858;3.964;2022-09-09T00:05:27;18.90;60.80
18177;DHT22;9213;50.858;3.964;2022-09-09T00:07:59;18.90;61.00
18177;DHT22;9213;50.858;3.964;2022-09-09T00:10:32;18.90;61.20
18177;DHT22;9213;50.858;3.964;2022-09-09T00:13:09;18.80;61.00
18177;DHT22;9213;50.858;3.964;2022-09-09T00:15:48;18.80;60.90
18177;DHT22;9213;50.858;3.964;2022-09-09T00:18:23;18.80;60.90
18177;DHT22;9213;50.858;3.964;2022-09-09T00:20:57;18.80;60.90
18177;DHT22;9213;50.858;3.964;2022-09-09T00:23:28;18.80;61.10
18177;DHT22;9213;50.858;3.964;2022-09-09T00:26:06;18.80;61.00
18177;DHT22;9213;50.858;3.964;2022-09-09T00:28:39;18.80;61.20
18177;DHT22;9213;50.858;3.964;2022-09-09T00:31:13;18.80;61.30
18177;DHT22;9213;50.858;3.964;2022-09-09T00:33:40;18.80;61.40
18177;DHT22;9213;50.858;3.964;2022-09-09T00:36:12;18.80;61.20
18177;DHT22;9213;50.858;3.964;2022-09-09T00:38:45;18.80;61.30
18177;DHT22;9213;50.858;3.964;2022-09-09T00:41:18;18.80;61.20
18177;DHT22;9213;50.858;3.964;2022-09-09T00:43:56;18.90;61.20
18177;DHT22;9213;50.858;3.964;2022-09-09T00:46:45;18.90;61.20
18177;DHT22;9213;50.858;3.964;2022-09-09T00:49:21;18.90;60.90
18177;DHT22;9213;50.858;3.964;2022-09-09T00:52:02;18.80;60.70
18177;DHT22;9213;50.858;3.964;2022-09-09T00:54:44;18.80;60.90
18177;DHT22;9213;50.858;3.964;2022-09-09T00:57:26;18.90;61.00
18177;DHT22;9213;50.858;3.964;2022-09-09T01:00:14;18.80;61.00
18177;DHT22;9213;50.858;3.964;2022-09-09T01:02:51;18.80;61.20
18177;DHT22;9213;50.858;3.964;2022-09-09T01:05:22;18.80;61.10
18177;DHT22;9213;50.858;3.964;2022-09-09T01:07:51;18.70;61.20
18177;DHT22;9213;50.858;3.964;2022-09-09T01:10:27;18.70;61.00
18177;DHT22;9213;50.858;3.964;2022-09-09T01:13:01;18.70;61.30
18177;DHT22;9213;50.858;3.964;2022-09-09T01:15:31;18.70;61.90
18177;DHT22;9213;50.858;3.964;2022-09-09T01:18:03;18.70;61.40
18177;DHT22;9213;50.858;3.964;2022-09-09T01:20:39;18.70;61.30
18177;DHT22;9213;50.858;3.964;2022-09-09T01:23:43;18.70;61.20
18177;DHT22;9213;50.858;3.964;2022-09-09T01:26:34;18.70;61.20
18177;DHT22;9213;50.858;3.964;2022-09-09T01:29:02;18.70;61.10
18177;DHT22;9213;50.858;3.964;2022-09-09T01:31:32;18.60;61.10
18177;DHT22;9213;50.858;3.964;2022-09-09T01:34:01;18.60;61.50
18177;DHT22;9213;50.858;3.964;2022-09-09T01:36:32;18.60;61.40
18177;DHT22;9213;50.858;3.964;2022-09-09T01:39:01;18.60;61.50
18177;DHT22;9213;50.858;3.964;2022-09-09T01:41:28;18.50;61.60
18177;DHT22;9213;50.858;3.964;2022-09-09T01:43:57;18.50;61.70
18177;DHT22;9213;50.858;3.964;2022-09-09T01:46:24;18.50;61.70
18177;DHT22;9213;50.858;3.964;2022-09-09T01:48:53;18.50;61.70
18177;DHT22;9213;50.858;3.964;2022-09-09T01:51:21;18.50;61.90
18177;DHT22;9213;50.858;3.964;2022-09-09T01:53:49;18.50;61.80
18177;DHT22;9213;50.858;3.964;2022-09-09T01:56:24;18.50;62.00
18177;DHT22;9213;50.858;3.964;2022-09-09T01:59:04;18.50;62.20
18177;DHT22;9213;50.858;3.964;2022-09-09T02:01:43;18.50;62.20
18177;DHT22;9213;50.858;3.964;2022-09-09T02:04:23;18.40;62.00
18177;DHT22;9213;50.858;3.964;2022-09-09T02:06:55;18.40;62.20
18177;DHT22;9213;50.858;3.964;2022-09-09T02:09:24;18.40;62.10
18177;DHT22;9213;50.858;3.964;2022-09-09T02:11:57;18.40;62.10
18177;DHT22;9213;50.858;3.964;2022-09-09T02:14:30;18.40;62.30
18177;DHT22;9213;50.858;3.964;2022-09-09T02:17:03;18.40;62.30
18177;DHT22;9213;50.858;3.964;2022-09-09T02:19:35;18.40;62.40
18177;DHT22;9213;50.858;3.964;2022-09-09T02:22:04;18.40;62.30
18177;DHT22;9213;50.858;3.964;2022-09-09T02:24:34;18.40;62.30
18177;DHT22;9213;50.858;3.964;2022-09-09T02:27:04;18.40;62.20
18177;DHT22;9213;50.858;3.964;2022-09-09T02:29:37;18.40;62.40
18177;DHT22;9213;50.858;3.964;2022-09-09T02:32:08;18.40;62.50
18177;DHT22;9213;50.858;3.964;2022-09-09T02:34:40;18.40;62.70
18177;DHT22;9213;50.858;3.964;2022-09-09T02:37:11;18.40;62.60
18177;DHT22;9213;50.858;3.964;2022-09-09T02:39:38;18.40;62.60
18177;DHT22;9213;50.858;3.964;2022-09-09T02:42:05;18.40;62.70
18177;DHT22;9213;50.858;3.964;2022-09-09T02:44:32;18.40;62.80
18177;DHT22;9213;50.858;3.964;2022-09-09T02:47:24;18.40;62.80
18177;DHT22;9213;50.858;3.964;2022-09-09T02:49:59;18.40;62.60
18177;DHT22;9213;50.858;3.964;2022-09-09T02:52:35;18.40;62.70
18177;DHT22;9213;50.858;3.964;2022-09-09T02:55:10;18.40;62.80
18177;DHT22;9213;50.858;3.964;2022-09-09T02:57:39;18.40;62.90
18177;DHT22;9213;50.858;3.964;2022-09-09T03:00:08;18.40;63.00
18177;DHT22;9213;50.858;3.964;2022-09-09T03:02:36;18.40;63.10
18177;DHT22;9213;50.858;3.964;2022-09-09T03:05:04;18.40;63.00
18177;DHT22;9213;50.858;3.964;2022-09-09T03:07:32;18.40;62.90
18177;DHT22;9213;50.858;3.964;2022-09-09T03:09:58;18.40;62.90
18177;DHT22;9213;50.858;3.964;2022-09-09T03:12:25;18.50;63.10
18177;DHT22;9213;50.858;3.964;2022-09-09T03:14:52;18.40;63.10
18177;DHT22;9213;50.858;3.964;2022-09-09T03:17:19;18.50;63.20
18177;DHT22;9213;50.858;3.964;2022-09-09T03:19:47;18.50;63.30
18177;DHT22;9213;50.858;3.964;2022-09-09T03:22:15;18.50;63.20
18177;DHT22;9213;50.858;3.964;2022-09-09T03:24:41;18.50;63.20
18177;DHT22;9213;50.858;3.964;2022-09-09T03:27:08;18.50;63.20
18177;DHT22;9213;50.858;3.964;2022-09-09T03:29:35;18.50;63.30
18177;DHT22;9213;50.858;3.964;2022-09-09T03:32:02;18.50;63.40
18177;DHT22;9213;50.858;3.964;2022-09-09T03:34:29;18.50;63.40
18177;DHT22;9213;50.858;3.964;2022-09-09T03:36:57;18.60;63.40
18177;DHT22;9213;50.858;3.964;2022-09-09T03:39:24;18.60;63.40
18177;DHT22;9213;50.858;3.964;2022-09-09T03:41:51;18.70;63.40
18177;DHT22;9213;50.858;3.964;2022-09-09T03:44:18;18.70;63.30
18177;DHT22;9213;50.858;3.964;2022-09-09T03:46:45;18.70;63.20
18177;DHT22;9213;50.858;3.964;2022-09-09T03:49:12;18.80;63.10
18177;DHT22;9213;50.858;3.964;2022-09-09T03:51:39;18.80;63.00
18177;DHT22;9213;50.858;3.964;2022-09-09T03:54:07;18.80;62.90
18177;DHT22;9213;50.858;3.964;2022-09-09T03:56:36;18.90;62.90
18177;DHT22;9213;50.858;3.964;2022-09-09T03:59:03;18.90;62.70
18177;DHT22;9213;50.858;3.964;2022-09-09T04:01:30;18.80;62.50
18177;DHT22;9213;50.858;3.964;2022-09-09T04:03:57;18.90;62.60
18177;DHT22;9213;50.858;3.964;2022-09-09T04:06:25;18.80;62.50
18177;DHT22;9213;50.858;3.964;2022-09-09T04:08:52;18.80;62.70
18177;DHT22;9213;50.858;3.964;2022-09-09T04:11:20;18.80;62.80
18177;DHT22;9213;50.858;3.964;2022-09-09T04:13:47;18.80;62.90
18177;DHT22;9213;50.858;3.964;2022-09-09T04:16:15;18.80;62.80
18177;DHT22;9213;50.858;3.964;2022-09-09T04:18:42;18.80;62.70
18177;DHT22;9213;50.858;3.964;2022-09-09T04:21:10;18.90;62.70
18177;DHT22;9213;50.858;3.964;2022-09-09T04:23:38;18.90;62.80
18177;DHT22;9213;50.858;3.964;2022-09-09T04:26:05;18.90;62.60
18177;DHT22;9213;50.858;3.964;2022-09-09T04:28:36;18.90;62.60
18177;DHT22;9213;50.858;3.964;2022-09-09T04:31:07;18.90;62.60
18177;DHT22;9213;50.858;3.964;2022-09-09T04:33:34;19.00;62.60
18177;DHT22;9213;50.858;3.964;2022-09-09T04:36:02;18.90;62.60
18177;DHT22;9213;50.858;3.964;2022-09-09T04:38:29;19.00;62.50
18177;DHT22;9213;50.858;3.964;2022-09-09T04:40:55;19.00;62.30
18177;DHT22;9213;50.858;3.964;2022-09-09T04:43:22;18.90;62.30
18177;DHT22;9213;50.858;3.964;2022-09-09T04:45:52;19.00;62.50
18177;DHT22;9213;50.858;3.964;2022-09-09T04:48:20;19.00;62.50
18177;DHT22;9213;50.858;3.964;2022-09-09T04:50:54;19.00;62.60
18177;DHT22;9213;50.858;3.964;2022-09-09T04:53:22;19.00;62.60
18177;DHT22;9213;50.858;3.964;2022-09-09T04:55:49;19.00;62.40
18177;DHT22;9213;50.858;3.964;2022-09-09T04:58:16;19.00;62.40
18177;DHT22;9213;50.858;3.964;2022-09-09T05:00:43;19.10;62.60
18177;DHT22;9213;50.858;3.964;2022-09-09T05:03:12;19.10;62.50
18177;DHT22;9213;50.858;3.964;2022-09-09T05:05:38;19.10;62.50
18177;DHT22;9213;50.858;3.964;2022-09-09T05:08:07;19.10;62.30
18177;DHT22;9213;50.858;3.964;2022-09-09T05:10:37;19.10;62.30
18177;DHT22;9213;50.858;3.964;2022-09-09T05:13:05;19.20;62.20
18177;DHT22;9213;50.858;3.964;2022-09-09T05:15:32;19.20;62.00
18177;DHT22;9213;50.858;3.964;2022-09-09T05:17:59;19.20;61.80
18177;DHT22;9213;50.858;3.964;2022-09-09T05:20:28;19.20;61.90
18177;DHT22;9213;50.858;3.964;2022-09-09T05:22:55;19.20;61.90
18177;DHT22;9213;50.858;3.964;2022-09-09T05:25:22;19.10;62.00
18177;DHT22;9213;50.858;3.964;2022-09-09T05:27:50;19.10;62.20
18177;DHT22;9213;50.858;3.964;2022-09-09T05:30:17;19.10;62.30
18177;DHT22;9213;50.858;3.964;2022-09-09T05:32:44;19.10;62.50
18177;DHT22;9213;50.858;3.964;2022-09-09T05:35:13;19.00;62.30
18177;DHT22;9213;50.858;3.964;2022-09-09T05:37:41;19.10;62.40
18177;DHT22;9213;50.858;3.964;2022-09-09T05:40:08;19.10;62.40
18177;DHT22;9213;50.858;3.964;2022-09-09T05:42:36;19.10;62.40
18177;DHT22;9213;50.858;3.964;2022-09-09T05:45:05;19.10;62.30
18177;DHT22;9213;50.858;3.964;2022-09-09T05:47:33;19.20;62.40
18177;DHT22;9213;50.858;3.964;2022-09-09T05:50:00;19.20;62.20
18177;DHT22;9213;50.858;3.964;2022-09-09T05:52:26;19.30;62.10
18177;DHT22;9213;50.858;3.964;2022-09-09T05:54:55;19.30;61.90
18177;DHT22;9213;50.858;3.964;2022-09-09T05:57:22;19.40;62.70
18177;DHT22;9213;50.858;3.964;2022-09-09T05:59:49;19.50;61.50
18177;DHT22;9213;50.858;3.964;2022-09-09T06:02:19;19.50;61.30
18177;DHT22;9213;50.858;3.964;2022-09-09T06:04:46;19.60;61.20
18177;DHT22;9213;50.858;3.964;2022-09-09T06:07:13;19.70;61.10
18177;DHT22;9213;50.858;3.964;2022-09-09T06:09:40;19.70;60.70
18177;DHT22;9213;50.858;3.964;2022-09-09T06:12:10;19.80;60.40
18177;DHT22;9213;50.858;3.964;2022-09-09T06:14:37;19.80;59.90
18177;DHT22;9213;50.858;3.964;2022-09-09T06:17:04;19.80;59.60
18177;DHT22;9213;50.858;3.964;2022-09-09T06:19:32;19.80;59.50
18177;DHT22;9213;50.858;3.964;2022-09-09T06:21:58;19.80;59.60
18177;DHT22;9213;50.858;3.964;2022-09-09T06:24:25;19.90;59.60
18177;DHT22;9213;50.858;3.964;2022-09-09T06:26:52;19.90;59.40
18177;DHT22;9213;50.858;3.964;2022-09-09T06:29:20;19.90;59.30
18177;DHT22;9213;50.858;3.964;2022-09-09T06:31:47;19.90;59.20
18177;DHT22;9213;50.858;3.964;2022-09-09T06:34:16;20.00;59.10
18177;DHT22;9213;50.858;3.964;2022-09-09T06:36:43;20.00;59.10
18177;DHT22;9213;50.858;3.964;2022-09-09T06:39:11;20.00;59.10
18177;DHT22;9213;50.858;3.964;2022-09-09T06:41:38;20.10;59.00
18177;DHT22;9213;50.858;3.964;2022-09-09T06:44:05;20.10;58.80
18177;DHT22;9213;50.858;3.964;2022-09-09T06:46:33;20.20;58.70
18177;DHT22;9213;50.858;3.964;2022-09-09T06:49:01;20.30;58.70
18177;DHT22;9213;50.858;3.964;2022-09-09T06:51:29;20.30;58.20
18177;DHT22;9213;50.858;3.964;2022-09-09T06:54:00;20.40;58.00
18177;DHT22;9213;50.858;3.964;2022-09-09T06:56:29;20.50;57.90
18177;DHT22;9213;50.858;3.964;2022-09-09T06:58:57;20.50;58.10
18177;DHT22;9213;50.858;3.964;2022-09-09T07:01:25;20.40;58.00
18177;DHT22;9213;50.858;3.964;2022-09-09T07:03:58;20.30;58.10
18177;DHT22;9213;50.858;3.964;2022-09-09T07:06:27;20.30;58.40
18177;DHT22;9213;50.858;3.964;2022-09-09T07:08:55;20.30;58.40
18177;DHT22;9213;50.858;3.964;2022-09-09T07:11:25;20.30;58.50
18177;DHT22;9213;50.858;3.964;2022-09-09T07:13:52;20.20;58.40
18177;DHT22;9213;50.858;3.964;2022-09-09T07:16:21;20.20;58.60
18177;DHT22;9213;50.858;3.964;2022-09-09T07:18:49;20.20;58.90
18177;DHT22;9213;50.858;3.964;2022-09-09T07:21:18;20.10;59.20
18177;DHT22;9213;50.858;3.964;2022-09-09T07:23:46;20.10;59.40
18177;DHT22;9213;50.858;3.964;2022-09-09T07:26:15;20.00;59.40
18177;DHT22;9213;50.858;3.964;2022-09-09T07:28:42;20.10;59.50
18177;DHT22;9213;50.858;3.964;2022-09-09T07:31:13;20.10;59.50
18177;DHT22;9213;50.858;3.964;2022-09-09T07:33:43;20.00;59.50
18177;DHT22;9213;50.858;3.964;2022-09-09T07:36:13;20.10;59.80
18177;DHT22;9213;50.858;3.964;2022-09-09T07:38:42;20.10;59.90
18177;DHT22;9213;50.858;3.964;2022-09-09T07:41:12;20.20;59.60
18177;DHT22;9213;50.858;3.964;2022-09-09T07:43:40;20.30;59.30
18177;DHT22;9213;50.858;3.964;2022-09-09T07:46:08;20.40;59.20
18177;DHT22;9213;50.858;3.964;2022-09-09T07:48:35;20.50;58.80
18177;DHT22;9213;50.858;3.964;2022-09-09T07:51:05;20.60;58.50
18177;DHT22;9213;50.858;3.964;2022-09-09T07:53:33;20.70;58.80
18177;DHT22;9213;50.858;3.964;2022-09-09T07:56:05;20.70;58.60
18177;DHT22;9213;50.858;3.964;2022-09-09T07:58:32;20.80;58.20
18177;DHT22;9213;50.858;3.964;2022-09-09T08:00:59;20.80;57.90
18177;DHT22;9213;50.858;3.964;2022-09-09T08:03:26;20.80;57.90
18177;DHT22;9213;50.858;3.964;2022-09-09T08:05:53;20.90;58.20
18177;DHT22;9213;50.858;3.964;2022-09-09T08:08:27;20.90;58.10
18177;DHT22;9213;50.858;3.964;2022-09-09T08:10:53;20.90;58.10
18177;DHT22;9213;50.858;3.964;2022-09-09T08:13:29;20.90;57.90
18177;DHT22;9213;50.858;3.964;2022-09-09T08:16:04;20.90;57.90
18177;DHT22;9213;50.858;3.964;2022-09-09T08:18:31;20.80;58.00
18177;DHT22;9213;50.858;3.964;2022-09-09T08:21:04;20.70;58.20
18177;DHT22;9213;50.858;3.964;2022-09-09T08:23:30;20.60;58.20
18177;DHT22;9213;50.858;3.964;2022-09-09T08:26:03;20.60;58.50
18177;DHT22;9213;50.858;3.964;2022-09-09T08:28:32;20.50;58.80
18177;DHT22;9213;50.858;3.964;2022-09-09T08:31:09;20.50;58.90
18177;DHT22;9213;50.858;3.964;2022-09-09T08:33:37;20.50;59.00
18177;DHT22;9213;50.858;3.964;2022-09-09T08:36:05;20.40;59.00
18177;DHT22;9213;50.858;3.964;2022-09-09T08:38:34;20.40;59.00
18177;DHT22;9213;50.858;3.964;2022-09-09T08:41:12;20.50;59.20
18177;DHT22;9213;50.858;3.964;2022-09-09T08:43:43;20.50;59.30
18177;DHT22;9213;50.858;3.964;2022-09-09T08:46:17;20.50;58.90
18177;DHT22;9213;50.858;3.964;2022-09-09T08:48:54;20.50;59.10
18177;DHT22;9213;50.858;3.964;2022-09-09T08:51:26;20.50;59.00
18177;DHT22;9213;50.858;3.964;2022-09-09T08:53:54;20.60;58.90
18177;DHT22;9213;50.858;3.964;2022-09-09T08:56:23;20.50;59.00
18177;DHT22;9213;50.858;3.964;2022-09-09T08:58:53;20.60;59.00
18177;DHT22;9213;50.858;3.964;2022-09-09T09:01:33;20.60;59.10
18177;DHT22;9213;50.858;3.964;2022-09-09T09:04:06;20.70;59.20
18177;DHT22;9213;50.858;3.964;2022-09-09T09:06:48;20.70;58.90
18177;DHT22;9213;50.858;3.964;2022-09-09T09:09:22;20.80;58.80
18177;DHT22;9213;50.858;3.964;2022-09-09T09:11:55;20.80;58.70
18177;DHT22;9213;50.858;3.964;2022-09-09T09:14:29;20.70;58.80
18177;DHT22;9213;50.858;3.964;2022-09-09T09:17:01;20.80;58.80
18177;DHT22;9213;50.858;3.964;2022-09-09T09:19:29;20.70;58.60
18177;DHT22;9213;50.858;3.964;2022-09-09T09:22:00;20.70;58.70
18177;DHT22;9213;50.858;3.964;2022-09-09T09:24:36;20.70;58.70
18177;DHT22;9213;50.858;3.964;2022-09-09T09:27:12;20.70;58.80
18177;DHT22;9213;50.858;3.964;2022-09-09T09:29:42;20.70;59.00
18177;DHT22;9213;50.858;3.964;2022-09-09T09:32:14;20.70;59.10
18177;DHT22;9213;50.858;3.964;2022-09-09T09:34:42;20.70;59.30
18177;DHT22;9213;50.858;3.964;2022-09-09T09:37:17;20.70;59.20
18177;DHT22;9213;50.858;3.964;2022-09-09T09:39:47;20.80;59.00
18177;DHT22;9213;50.858;3.964;2022-09-09T09:42:17;20.90;58.90
18177;DHT22;9213;50.858;3.964;2022-09-09T09:44:45;21.00;58.80
18177;DHT22;9213;50.858;3.964;2022-09-09T09:47:15;21.10;59.10
18177;DHT22;9213;50.858;3.964;2022-09-09T09:49:51;21.40;58.80
18177;DHT22;9213;50.858;3.964;2022-09-09T09:52:21;21.60;58.10
18177;DHT22;9213;50.858;3.964;2022-09-09T09:54:49;21.70;57.30
18177;DHT22;9213;50.858;3.964;2022-09-09T09:57:18;21.80;56.60
18177;DHT22;9213;50.858;3.964;2022-09-09T10:00:01;21.80;56.40
18177;DHT22;9213;50.858;3.964;2022-09-09T10:02:37;22.00;56.50
18177;DHT22;9213;50.858;3.964;2022-09-09T10:05:13;22.00;56.40
18177;DHT22;9213;50.858;3.964;2022-09-09T10:07:41;22.10;56.40
18177;DHT22;9213;50.858;3.964;2022-09-09T10:10:13;22.30;55.70
18177;DHT22;9213;50.858;3.964;2022-09-09T10:12:48;22.50;55.20
18177;DHT22;9213;50.858;3.964;2022-09-09T10:15:34;22.80;54.40
18177;DHT22;9213;50.858;3.964;2022-09-09T10:18:13;23.00;54.30
18177;DHT22;9213;50.858;3.964;2022-09-09T10:20:48;23.10;53.60
18177;DHT22;9213;50.858;3.964;2022-09-09T10:23:28;23.30;52.70
18177;DHT22;9213;50.858;3.964;2022-09-09T10:26:16;23.30;52.40
18177;DHT22;9213;50.858;3.964;2022-09-09T10:29:04;23.40;52.60
18177;DHT22;9213;50.858;3.964;2022-09-09T10:31:39;23.40;52.20
18177;DHT22;9213;50.858;3.964;2022-09-09T10:34:17;23.40;52.10
18177;DHT22;9213;50.858;3.964;2022-09-09T10:36:47;23.40;52.10
18177;DHT22;9213;50.858;3.964;2022-09-09T10:39:23;23.40;52.20
18177;DHT22;9213;50.858;3.964;2022-09-09T10:42:01;23.60;52.20
18177;DHT22;9213;50.858;3.964;2022-09-09T10:44:42;23.80;51.40
18177;DHT22;9213;50.858;3.964;2022-09-09T10:47:29;23.90;51.00
18177;DHT22;9213;50.858;3.964;2022-09-09T10:50:13;24.00;50.40
18177;DHT22;9213;50.858;3.964;2022-09-09T10:52:50;24.10;50.10
18177;DHT22;9213;50.858;3.964;2022-09-09T10:55:23;24.10;50.10
18177;DHT22;9213;50.858;3.964;2022-09-09T10:57:54;24.10;50.50
18177;DHT22;9213;50.858;3.964;2022-09-09T11:00:24;24.20;49.50
18177;DHT22;9213;50.858;3.964;2022-09-09T11:02:56;24.20;49.00
18177;DHT22;9213;50.858;3.964;2022-09-09T11:05:29;24.30;49.20
18177;DHT22;9213;50.858;3.964;2022-09-09T11:07:59;24.30;49.00
18177;DHT22;9213;50.858;3.964;2022-09-09T11:10:37;24.30;49.00
18177;DHT22;9213;50.858;3.964;2022-09-09T11:13:10;24.40;48.50
18177;DHT22;9213;50.858;3.964;2022-09-09T11:15:41;24.40;48.20
18177;DHT22;9213;50.858;3.964;2022-09-09T11:18:15;24.40;48.00
18177;DHT22;9213;50.858;3.964;2022-09-09T11:20:48;24.40;48.00
18177;DHT22;9213;50.858;3.964;2022-09-09T11:23:18;24.20;48.40
18177;DHT22;9213;50.858;3.964;2022-09-09T11:25:51;24.00;49.10
18177;DHT22;9213;50.858;3.964;2022-09-09T11:28:32;23.90;49.50
18177;DHT22;9213;50.858;3.964;2022-09-09T11:31:12;23.90;49.40
18177;DHT22;9213;50.858;3.964;2022-09-09T11:34:02;23.80;49.70
18177;DHT22;9213;50.858;3.964;2022-09-09T11:36:56;23.80;50.10
18177;DHT22;9213;50.858;3.964;2022-09-09T11:39:38;23.80;50.30
18177;DHT22;9213;50.858;3.964;2022-09-09T11:42:17;23.80;50.90
18177;DHT22;9213;50.858;3.964;2022-09-09T11:44:45;23.80;50.30
18177;DHT22;9213;50.858;3.964;2022-09-09T11:47:20;23.80;50.40
18177;DHT22;9213;50.858;3.964;2022-09-09T11:49:51;23.90;50.40
18177;DHT22;9213;50.858;3.964;2022-09-09T11:52:25;24.00;50.00
18177;DHT22;9213;50.858;3.964;2022-09-09T11:54:54;24.10;49.60
18177;DHT22;9213;50.858;3.964;2022-09-09T11:57:29;24.10;49.30
18177;DHT22;9213;50.858;3.964;2022-09-09T11:59:57;24.20;49.20
18177;DHT22;9213;50.858;3.964;2022-09-09T12:02:25;24.10;49.40
18177;DHT22;9213;50.858;3.964;2022-09-09T12:04:59;24.20;49.50
18177;DHT22;9213;50.858;3.964;2022-09-09T12:07:35;24.40;50.00
18177;DHT22;9213;50.858;3.964;2022-09-09T12:10:20;24.60;49.50
18177;DHT22;9213;50.858;3.964;2022-09-09T12:12:48;24.80;49.00
18177;DHT22;9213;50.858;3.964;2022-09-09T12:15:22;24.80;48.40
18177;DHT22;9213;50.858;3.964;2022-09-09T12:17:51;24.90;48.70
18177;DHT22;9213;50.858;3.964;2022-09-09T12:20:22;24.80;48.40
18177;DHT22;9213;50.858;3.964;2022-09-09T12:23:01;24.80;48.90
18177;DHT22;9213;50.858;3.964;2022-09-09T12:25:36;24.70;49.00
18177;DHT22;9213;50.858;3.964;2022-09-09T12:28:11;24.80;48.60
18177;DHT22;9213;50.858;3.964;2022-09-09T12:30:49;24.80;48.50
18177;DHT22;9213;50.858;3.964;2022-09-09T12:33:18;24.90;48.10
18177;DHT22;9213;50.858;3.964;2022-09-09T12:35:51;24.90;48.00
18177;DHT22;9213;50.858;3.964;2022-09-09T12:38:26;24.90;47.50
18177;DHT22;9213;50.858;3.964;2022-09-09T12:40:56;24.80;47.40
18177;DHT22;9213;50.858;3.964;2022-09-09T12:43:24;24.80;47.30
18177;DHT22;9213;50.858;3.964;2022-09-09T12:45:55;24.70;47.70
18177;DHT22;9213;50.858;3.964;2022-09-09T12:48:29;24.70;48.20
18177;DHT22;9213;50.858;3.964;2022-09-09T12:50:59;24.70;48.20
18177;DHT22;9213;50.858;3.964;2022-09-09T12:53:29;24.70;48.00
18177;DHT22;9213;50.858;3.964;2022-09-09T12:55:58;24.70;48.10
18177;DHT22;9213;50.858;3.964;2022-09-09T12:58:26;24.70;48.10
18177;DHT22;9213;50.858;3.964;2022-09-09T13:00:59;24.80;48.00
18177;DHT22;9213;50.858;3.964;2022-09-09T13:03:27;24.80;48.20
18177;DHT22;9213;50.858;3.964;2022-09-09T13:06:09;24.90;48.10
18177;DHT22;9213;50.858;3.964;2022-09-09T13:08:37;25.00;48.20
18177;DHT22;9213;50.858;3.964;2022-09-09T13:11:08;25.10;47.10
18177;DHT22;9213;50.858;3.964;2022-09-09T13:13:39;25.20;46.80
18177;DHT22;9213;50.858;3.964;2022-09-09T13:16:17;25.20;46.80
18177;DHT22;9213;50.858;3.964;2022-09-09T13:18:44;25.30;46.60
18177;DHT22;9213;50.858;3.964;2022-09-09T13:21:13;25.40;46.00
18177;DHT22;9213;50.858;3.964;2022-09-09T13:23:41;25.60;45.40
18177;DHT22;9213;50.858;3.964;2022-09-09T13:26:21;25.70;45.00
18177;DHT22;9213;50.858;3.964;2022-09-09T13:28:48;25.70;44.30
18177;DHT22;9213;50.858;3.964;2022-09-09T13:31:21;25.60;44.00
18177;DHT22;9213;50.858;3.964;2022-09-09T13:33:48;25.60;43.90
18177;DHT22;9213;50.858;3.964;2022-09-09T13:36:28;25.50;43.60
18177;DHT22;9213;50.858;3.964;2022-09-09T13:38:57;25.50;44.00
18177;DHT22;9213;50.858;3.964;2022-09-09T13:41:28;25.40;44.10
18177;DHT22;9213;50.858;3.964;2022-09-09T13:43:57;25.40;44.90
18177;DHT22;9213;50.858;3.964;2022-09-09T13:46:27;25.60;45.20
18177;DHT22;9213;50.858;3.964;2022-09-09T13:48:56;25.70;44.70
18177;DHT22;9213;50.858;3.964;2022-09-09T13:51:32;26.00;44.60
18177;DHT22;9213;50.858;3.964;2022-09-09T13:53:59;26.20;44.20
18177;DHT22;9213;50.858;3.964;2022-09-09T13:56:26;26.30;43.50
18177;DHT22;9213;50.858;3.964;2022-09-09T13:58:54;26.40;43.10
18177;DHT22;9213;50.858;3.964;2022-09-09T14:01:21;26.40;43.20
18177;DHT22;9213;50.858;3.964;2022-09-09T14:03:48;26.50;43.30
18177;DHT22;9213;50.858;3.964;2022-09-09T14:06:16;26.50;43.20
18177;DHT22;9213;50.858;3.964;2022-09-09T14:08:45;26.50;43.10
18177;DHT22;9213;50.858;3.964;2022-09-09T14:11:13;26.60;42.70
18177;DHT22;9213;50.858;3.964;2022-09-09T14:13:40;26.60;41.30
18177;DHT22;9213;50.858;3.964;2022-09-09T14:16:07;26.60;41.10
18177;DHT22;9213;50.858;3.964;2022-09-09T14:18:35;26.50;41.80
18177;DHT22;9213;50.858;3.964;2022-09-09T14:21:03;26.40;42.30
18177;DHT22;9213;50.858;3.964;2022-09-09T14:23:30;26.40;43.00
18177;DHT22;9213;50.858;3.964;2022-09-09T14:25:59;26.30;42.80
18177;DHT22;9213;50.858;3.964;2022-09-09T14:28:26;26.30;43.30
18177;DHT22;9213;50.858;3.964;2022-09-09T14:30:53;26.20;44.00
18177;DHT22;9213;50.858;3.964;2022-09-09T14:33:21;26.20;43.90
18177;DHT22;9213;50.858;3.964;2022-09-09T14:35:47;26.20;44.20
18177;DHT22;9213;50.858;3.964;2022-09-09T14:38:14;26.10;44.10
18177;DHT22;9213;50.858;3.964;2022-09-09T14:40:45;26.20;43.80
18177;DHT22;9213;50.858;3.964;2022-09-09T14:43:13;26.20;43.30
18177;DHT22;9213;50.858;3.964;2022-09-09T14:45:40;26.20;43.60
18177;DHT22;9213;50.858;3.964;2022-09-09T14:48:08;26.20;43.70
18177;DHT22;9213;50.858;3.964;2022-09-09T14:50:35;26.20;43.90
18177;DHT22;9213;50.858;3.964;2022-09-09T14:53:05;26.20;43.00
18177;DHT22;9213;50.858;3.964;2022-09-09T14:55:32;26.20;43.10
18177;DHT22;9213;50.858;3.964;2022-09-09T14:57:59;26.20;42.80
18177;DHT22;9213;50.858;3.964;2022-09-09T15:00:27;26.20;42.70
18177;DHT22;9213;50.858;3.964;2022-09-09T15:02:55;26.10;43.20
18177;DHT22;9213;50.858;3.964;2022-09-09T15:05:22;26.10;43.10
18177;DHT22;9213;50.858;3.964;2022-09-09T15:07:49;25.90;42.90
18177;DHT22;9213;50.858;3.964;2022-09-09T15:10:17;25.90;43.00
18177;DHT22;9213;50.858;3.964;2022-09-09T15:12:44;25.80;42.90
18177;DHT22;9213;50.858;3.964;2022-09-09T15:15:11;25.80;42.90
18177;DHT22;9213;50.858;3.964;2022-09-09T15:17:39;25.80;42.60
18177;DHT22;9213;50.858;3.964;2022-09-09T15:20:07;25.80;42.70
18177;DHT22;9213;50.858;3.964;2022-09-09T15:22:34;25.80;41.20
18177;DHT22;9213;50.858;3.964;2022-09-09T15:25:03;25.70;41.90
18177;DHT22;9213;50.858;3.964;2022-09-09T15:27:31;25.70;43.20
18177;DHT22;9213;50.858;3.964;2022-09-09T15:29:58;25.70;42.90
18177;DHT22;9213;50.858;3.964;2022-09-09T15:32:26;25.60;42.80
18177;DHT22;9213;50.858;3.964;2022-09-09T15:34:55;25.60;43.00
18177;DHT22;9213;50.858;3.964;2022-09-09T15:37:22;25.60;43.20
18177;DHT22;9213;50.858;3.964;2022-09-09T15:39:48;25.60;43.20
18177;DHT22;9213;50.858;3.964;2022-09-09T15:42:15;25.60;44.00
18177;DHT22;9213;50.858;3.964;2022-09-09T15:44:42;25.60;43.50
18177;DHT22;9213;50.858;3.964;2022-09-09T15:47:11;25.50;43.80
18177;DHT22;9213;50.858;3.964;2022-09-09T15:49:39;25.50;44.00
18177;DHT22;9213;50.858;3.964;2022-09-09T15:52:10;25.30;44.90
18177;DHT22;9213;50.858;3.964;2022-09-09T15:54:37;25.30;45.40
18177;DHT22;9213;50.858;3.964;2022-09-09T15:57:06;25.00;45.80
18177;DHT22;9213;50.858;3.964;2022-09-09T15:59:34;24.80;46.20
18177;DHT22;9213;50.858;3.964;2022-09-09T16:02:01;24.60;47.30
18177;DHT22;9213;50.858;3.964;2022-09-09T16:04:28;24.40;47.70
18177;DHT22;9213;50.858;3.964;2022-09-09T16:06:57;24.30;48.20